KOTM/OTM METAR and TAF weather

Enter ICAO airport designator
Station Type Date Time Source
KOTM METAR 2019/10/21 01:53 UTC NOAA

KOTM 210153Z AUTO 12007KT 10SM FEW046 11/06 A2976 RMK AO2 SLP081 T01110061 $


Station Type Date Time Source
KOTM Decoded METAR 2019/10/21 01:53 UTC NOAA

OTTUMWA INDUSTRIAL AIRPORT, IA, United States (KOTM) 41-06N 092-27W 256M
Oct 20, 2019 - 09:53 PM EDT / 2019.10.21 0153 UTC
Wind: from the ESE (120 degrees) at 8 MPH (7 KT):0
Visibility: 10 mile(s):0
Sky conditions: mostly clear
Temperature: 52.0 F (11.1 C)
Dew Point: 43.0 F (6.1 C)
Relative Humidity: 71%
Pressure (altimeter): 29.76 in. Hg (1007 hPa)
ob: KOTM 210153Z AUTO 12007KT 10SM FEW046 11/06 A2976 RMK AO2 SLP081 T01110061
cycle: 2

Station Type Date Time Source
KOTM TAF 2019/10/20 18:42 UTC NOAA

TAF KOTM 201739Z 2018/2118 14009KT P6SM SCT200
FM210400 12010KT 6SM -SHRA OVC030
FM211000 16008KT P6SM VCSH BKN015
FM211400 21016G23KT P6SM OVC050

Example: see airport list